Time;durP1;ratioP1;P1;durP2;ratioP2;P2;SDS_P1;SDS_P2;PMS_P1;PMS_P2;Temp;Humidity;BMP_temperature;BMP_pressure;BME280_temperature;BME280_humidity;BME280_pressure;Samples;Min_cycle;Max_cycle;Signal;HPM_P1;HPM_P2
2021/07/04 00:02:10;;;;;;;10.85;9.55;;;18.90;99.90;;;;;;6288546;22;20023;-83
2021/07/04 00:04:36;;;;;;;11.82;10.32;;;18.80;99.90;;;;;;6283274;22;20153;-82
2021/07/04 00:07:03;;;;;;;16.98;10.00;;;18.90;99.90;;;;;;6307520;22;20086;-83
2021/07/04 00:09:29;;;;;;;16.88;10.40;;;18.90;99.90;;;;;;6279779;22;20015;-83
2021/07/04 00:11:55;;;;;;;18.58;11.63;;;18.90;99.90;;;;;;6290420;22;20358;-83
2021/07/04 00:14:20;;;;;;;11.55;9.93;;;18.90;99.90;;;;;;6279435;22;20593;-83
2021/07/04 00:16:47;;;;;;;11.35;9.82;;;18.80;99.90;;;;;;6317686;22;20091;-83
2021/07/04 00:19:13;;;;;;;15.05;10.30;;;18.90;99.90;;;;;;6317767;22;20007;-83
2021/07/04 00:21:39;;;;;;;13.07;9.65;;;18.80;99.90;;;;;;6307383;22;20018;-83
2021/07/04 00:24:05;;;;;;;16.30;10.65;;;18.80;99.90;;;;;;6283550;22;20335;-83
2021/07/04 00:26:31;;;;;;;12.50;10.05;;;18.80;99.90;;;;;;6303903;22;20094;-83
2021/07/04 00:29:00;;;;;;;12.75;10.75;;;18.80;99.90;;;;;;6286193;22;20011;-82
2021/07/04 00:31:26;;;;;;;17.13;10.95;;;18.80;99.90;;;;;;6287928;22;20030;-83
2021/07/04 00:33:52;;;;;;;16.08;11.93;;;18.80;99.90;;;;;;6348654;22;20021;-83
2021/07/04 00:36:18;;;;;;;20.48;12.45;;;18.80;99.90;;;;;;6311740;22;20047;-83
2021/07/04 00:38:44;;;;;;;14.60;10.88;;;18.70;99.90;;;;;;6284419;22;20084;-82
2021/07/04 00:41:10;;;;;;;14.00;11.48;;;18.70;99.90;;;;;;6338947;22;20022;-82
2021/07/04 00:43:36;;;;;;;14.88;11.48;;;18.70;99.90;;;;;;6338133;22;20010;-82
2021/07/04 00:46:02;;;;;;;15.30;12.43;;;18.70;99.90;;;;;;6349127;22;20010;-83
2021/07/04 00:48:28;;;;;;;16.30;12.60;;;18.70;99.90;;;;;;6348697;22;20015;-82
2021/07/04 00:50:54;;;;;;;19.48;12.82;;;18.70;99.90;;;;;;6310959;22;20060;-83
2021/07/04 00:53:22;;;;;;;15.40;12.75;;;18.70;99.90;;;;;;6337516;22;20007;-83
2021/07/04 00:55:48;;;;;;;18.27;14.18;;;18.70;99.90;;;;;;6348605;22;20045;-83
2021/07/04 00:58:14;;;;;;;16.00;12.88;;;18.70;99.90;;;;;;6348790;22;20022;-81
2021/07/04 01:00:41;;;;;;;18.83;13.02;;;18.60;99.90;;;;;;6349096;22;20015;-83
2021/07/04 01:03:08;;;;;;;19.52;13.45;;;18.60;99.90;;;;;;6338240;22;20010;-83
2021/07/04 01:05:38;;;;;;;17.13;13.60;;;18.60;99.90;;;;;;6349105;22;20034;-83
2021/07/04 01:08:05;;;;;;;16.08;12.98;;;18.60;99.90;;;;;;6310185;22;20331;-83
2021/07/04 01:10:33;;;;;;;19.92;14.35;;;18.60;99.90;;;;;;6285018;22;20362;-83
2021/07/04 01:13:00;;;;;;;16.17;13.60;;;18.60;99.90;;;;;;6348439;22;20090;-81
2021/07/04 01:15:27;;;;;;;20.33;13.30;;;18.50;99.90;;;;;;6310300;22;20010;-83
2021/07/04 01:17:56;;;;;;;16.77;14.50;;;18.60;99.90;;;;;;6284324;22;20450;-83
2021/07/04 01:20:23;;;;;;;19.77;15.35;;;18.50;99.90;;;;;;6348793;22;20011;-83
2021/07/04 01:22:59;;;;;;;18.23;13.45;;;18.50;99.90;;;;;;6310364;22;20011;-83
2021/07/04 01:25:26;;;;;;;20.38;13.88;;;18.50;99.90;;;;;;6303586;22;20015;-81
2021/07/04 01:27:52;;;;;;;18.70;14.05;;;18.50;99.90;;;;;;6289906;22;20090;-82
2021/07/04 01:30:20;;;;;;;21.70;14.23;;;18.50;99.90;;;;;;6279303;22;20018;-83
2021/07/04 01:32:45;;;;;;;21.52;15.73;;;18.40;99.90;;;;;;6306358;22;20015;-83
2021/07/04 01:35:12;;;;;;;23.13;16.10;;;18.40;99.90;;;;;;6306844;22;20068;-83
2021/07/04 01:37:40;;;;;;;20.13;16.05;;;18.40;99.90;;;;;;6253399;22;20045;-83
2021/07/04 01:40:07;;;;;;;21.08;15.13;;;18.30;99.90;;;;;;6279480;22;20411;-83
2021/07/04 01:42:33;;;;;;;18.95;15.82;;;18.30;99.90;;;;;;6253602;22;20011;-83
2021/07/04 01:44:59;;;;;;;19.88;16.17;;;18.30;99.90;;;;;;6306841;22;20043;-83
2021/07/04 01:47:24;;;;;;;23.80;16.30;;;18.30;99.90;;;;;;6289732;22;20011;-81
2021/07/04 01:49:50;;;;;;;21.92;16.65;;;18.30;99.90;;;;;;6316605;22;20015;-81
2021/07/04 01:52:16;;;;;;;18.33;15.20;;;18.30;99.90;;;;;;6288556;22;20081;-83
2021/07/04 01:54:42;;;;;;;21.50;16.77;;;18.20;99.90;;;;;;6281222;22;20064;-83
2021/07/04 01:57:13;;;;;;;20.30;16.80;;;18.20;99.90;;;;;;6253536;22;20011;-83
2021/07/04 01:59:41;;;;;;;22.90;17.40;;;18.20;99.90;;;;;;6306637;22;20045;-83
2021/07/04 02:02:07;;;;;;;22.35;18.38;;;18.20;99.90;;;;;;6315762;22;20086;-83
2021/07/04 02:04:41;;;;;;;21.20;16.85;;;18.10;99.90;;;;;;6308564;22;20335;-81
2021/07/04 02:07:14;;;;;;;23.60;16.08;;;18.20;99.90;;;;;;6316127;22;20084;-83
2021/07/04 02:09:48;;;;;;;19.00;16.20;;;18.20;99.90;;;;;;6281498;22;20039;-80
2021/07/04 02:12:16;;;;;;;24.63;17.58;;;18.20;99.90;;;;;;6316617;22;20041;-83
2021/07/04 02:14:43;;;;;;;24.38;17.83;;;18.20;99.90;;;;;;6316582;22;20039;-81
2021/07/04 02:17:09;;;;;;;26.15;17.42;;;18.20;99.90;;;;;;6316516;22;20060;-81
2021/07/04 02:19:37;;;;;;;22.17;17.63;;;18.20;99.90;;;;;;6288764;22;20374;-81
2021/07/04 02:22:05;;;;;;;23.40;18.83;;;18.20;99.90;;;;;;6253214;22;20039;-82
2021/07/04 02:24:31;;;;;;;23.33;16.73;;;18.20;99.90;;;;;;6308910;22;20090;-82
2021/07/04 02:26:59;;;;;;;21.40;17.35;;;18.20;99.90;;;;;;6333774;22;20045;-81
2021/07/04 02:29:25;;;;;;;22.88;17.65;;;18.20;99.90;;;;;;6309692;22;20011;-81
2021/07/04 02:31:52;;;;;;;22.85;18.10;;;18.20;99.90;;;;;;6347676;22;20025;-82
2021/07/04 02:34:18;;;;;;;22.98;18.13;;;18.10;99.90;;;;;;6319876;22;20006;-81
2021/07/04 02:36:44;;;;;;;26.83;17.27;;;18.10;99.90;;;;;;6320123;22;20038;-81
2021/07/04 02:39:11;;;;;;;22.83;18.10;;;18.10;99.90;;;;;;6283293;22;20017;-83
2021/07/04 02:41:36;;;;;;;23.08;17.65;;;18.10;99.90;;;;;;6319750;22;20007;-82
2021/07/04 02:44:02;;;;;;;23.80;17.73;;;18.10;99.90;;;;;;6310199;22;20025;-81
2021/07/04 02:46:31;;;;;;;32.13;20.55;;;18.10;99.90;;;;;;6347364;22;20014;-81
2021/07/04 02:48:57;;;;;;;22.90;18.00;;;18.10;99.90;;;;;;6309913;22;20076;-81
2021/07/04 02:51:23;;;;;;;27.35;20.05;;;18.10;99.90;;;;;;6309050;22;20072;-81
2021/07/04 02:53:48;;;;;;;26.92;19.40;;;18.10;99.90;;;;;;6342675;22;20358;-81
2021/07/04 02:56:14;;;;;;;25.55;19.27;;;18.10;99.90;;;;;;6319968;22;20038;-81
2021/07/04 02:58:40;;;;;;;24.60;19.38;;;18.10;99.90;;;;;;6319511;22;20132;-81
2021/07/04 03:01:06;;;;;;;24.35;18.33;;;18.00;99.90;;;;;;6336906;22;20150;-81
2021/07/04 03:03:32;;;;;;;30.55;19.90;;;18.00;99.90;;;;;;6309710;22;20010;-81
2021/07/04 03:05:58;;;;;;;29.25;20.20;;;18.00;99.90;;;;;;6351141;22;20011;-81
2021/07/04 03:12:32;;;;;;;24.55;19.63;;;18.00;99.90;;;;;;6340095;22;20010;-81
2021/07/04 03:14:58;;;;;;;25.60;18.65;;;18.00;99.90;;;;;;6340666;22;20292;-81
2021/07/04 03:17:24;;;;;;;24.13;18.98;;;18.00;99.90;;;;;;6350773;22;20462;-81
2021/07/04 03:19:50;;;;;;;26.20;19.45;;;18.00;99.90;;;;;;6323293;22;20034;-81
2021/07/04 03:22:15;;;;;;;23.33;19.15;;;18.00;99.90;;;;;;6308381;22;20015;-81
2021/07/04 03:24:41;;;;;;;26.42;19.92;;;18.00;99.90;;;;;;6339736;22;20015;-81
2021/07/04 03:27:10;;;;;;;21.25;18.20;;;18.00;99.90;;;;;;6310099;22;20007;-81
2021/07/04 03:29:36;;;;;;;24.05;19.27;;;18.00;99.90;;;;;;6336562;22;20015;-81
2021/07/04 03:32:04;;;;;;;25.38;19.65;;;18.10;99.90;;;;;;6336395;22;20831;-81
2021/07/04 03:34:30;;;;;;;29.75;20.83;;;18.10;99.90;;;;;;6308458;22;20337;-81
2021/07/04 03:36:56;;;;;;;27.55;18.70;;;18.10;99.90;;;;;;6336340;22;20007;-81
2021/07/04 03:39:22;;;;;;;26.90;19.30;;;18.10;99.90;;;;;;6336009;22;20011;-81
2021/07/04 03:41:48;;;;;;;27.20;20.13;;;18.10;99.90;;;;;;6309032;22;20083;-81
2021/07/04 03:44:17;;;;;;;25.50;19.48;;;18.20;99.90;;;;;;6336781;22;20338;-81
2021/07/04 03:46:43;;;;;;;24.98;19.65;;;18.20;99.90;;;;;;6283601;22;20042;-81
2021/07/04 03:49:08;;;;;;;25.08;19.50;;;18.20;99.90;;;;;;6319603;22;20036;-81
2021/07/04 03:51:35;;;;;;;25.30;19.60;;;18.20;99.90;;;;;;6319457;22;20054;-81
2021/07/04 03:54:00;;;;;;;27.50;20.13;;;18.20;99.90;;;;;;6342251;22;20019;-81
2021/07/04 03:56:26;;;;;;;26.77;19.77;;;18.20;99.90;;;;;;6309071;22;20081;-81
2021/07/04 03:58:52;;;;;;;26.38;20.13;;;18.20;99.90;;;;;;6319883;22;20090;-81
2021/07/04 04:01:21;;;;;;;24.98;19.90;;;18.30;99.90;;;;;;6347384;22;20007;-81
2021/07/04 04:03:48;;;;;;;29.13;20.75;;;18.30;99.90;;;;;;6342364;22;20434;-81
2021/07/04 04:06:15;;;;;;;27.23;19.45;;;18.30;99.90;;;;;;6336729;22;20832;-81
2021/07/04 04:08:42;;;;;;;24.40;19.23;;;18.30;99.90;;;;;;6316393;22;20011;-82
2021/07/04 04:11:09;;;;;;;26.90;20.52;;;18.40;99.90;;;;;;6318792;22;20014;-81
2021/07/04 04:13:35;;;;;;;26.75;21.58;;;18.40;99.90;;;;;;6319192;22;20447;-82
2021/07/04 04:16:01;;;;;;;27.05;19.65;;;18.40;99.90;;;;;;6336303;22;20052;-81
2021/07/04 04:18:27;;;;;;;25.38;20.45;;;18.40;99.90;;;;;;6346928;22;20039;-81
2021/07/04 04:20:55;;;;;;;25.70;19.55;;;18.40;99.90;;;;;;6346558;22;20316;-81
2021/07/04 04:23:21;;;;;;;25.65;19.83;;;18.50;99.90;;;;;;6318149;22;20046;-81
2021/07/04 04:25:47;;;;;;;26.45;19.92;;;18.40;99.90;;;;;;6315202;22;20011;-81
2021/07/04 04:28:12;;;;;;;28.05;20.92;;;18.50;99.90;;;;;;6336305;22;20013;-81
2021/07/04 04:30:38;;;;;;;24.77;19.85;;;18.50;99.90;;;;;;6347186;22;20086;-81
2021/07/04 04:33:05;;;;;;;30.25;20.92;;;18.40;99.90;;;;;;6335945;22;20461;-81
2021/07/04 04:35:31;;;;;;;28.52;21.10;;;18.60;99.90;;;;;;6282573;22;20086;-81
2021/07/04 04:37:56;;;;;;;28.52;20.58;;;18.50;99.90;;;;;;6335541;22;20069;-81
2021/07/04 04:40:22;;;;;;;33.67;22.50;;;18.40;99.90;;;;;;6282545;22;20056;-81
2021/07/04 04:42:49;;;;;;;32.90;21.83;;;18.50;99.90;;;;;;6345789;22;20663;-84
2021/07/04 04:45:15;;;;;;;32.80;21.27;;;18.50;99.90;;;;;;6345801;22;20022;-84
2021/07/04 04:47:41;;;;;;;27.65;21.90;;;18.50;99.90;;;;;;6308343;22;20746;-84
2021/07/04 04:50:08;;;;;;;31.10;21.48;;;18.50;99.90;;;;;;6319904;22;20372;-83
2021/07/04 04:52:34;;;;;;;27.30;20.48;;;18.50;99.90;;;;;;6319757;22;20006;-84
2021/07/04 04:55:01;;;;;;;27.63;21.92;;;18.50;99.90;;;;;;6312961;22;20041;-83
2021/07/04 04:57:27;;;;;;;31.60;22.15;;;18.50;99.90;;;;;;6283748;22;20015;-83
2021/07/04 04:59:53;;;;;;;31.27;22.73;;;18.50;99.90;;;;;;6283983;22;20015;-83
2021/07/04 05:02:19;;;;;;;30.75;22.27;;;18.60;99.90;;;;;;6283488;22;20460;-83
2021/07/04 05:04:44;;;;;;;29.02;22.20;;;18.60;99.90;;;;;;6339087;22;20046;-83
2021/07/04 05:07:10;;;;;;;27.88;22.20;;;18.70;99.90;;;;;;6319111;22;20011;-82
2021/07/04 05:09:36;;;;;;;27.38;21.48;;;18.80;99.90;;;;;;6310281;22;20060;-83
2021/07/04 05:12:02;;;;;;;27.00;21.00;;;18.80;99.90;;;;;;6309763;22;20010;-83
2021/07/04 05:14:28;;;;;;;29.27;21.08;;;18.90;99.90;;;;;;6310354;22;20025;-83
2021/07/04 05:16:54;;;;;;;24.98;20.65;;;18.90;99.90;;;;;;6309839;22;20409;-83
2021/07/04 05:19:20;;;;;;;28.30;20.15;;;19.00;99.90;;;;;;6310922;22;20087;-83
2021/07/04 05:21:45;;;;;;;31.45;22.20;;;19.00;99.90;;;;;;6310595;22;20034;-83
2021/07/04 05:24:12;;;;;;;30.17;21.88;;;19.00;99.90;;;;;;6284834;22;20038;-83
2021/07/04 05:26:38;;;;;;;28.15;21.55;;;19.00;99.90;;;;;;6338467;22;20098;-83
2021/07/04 05:29:05;;;;;;;28.83;22.45;;;19.00;99.90;;;;;;6320893;22;20049;-83
2021/07/04 05:31:31;;;;;;;28.70;21.48;;;19.00;99.90;;;;;;6284401;22;20006;-83
2021/07/04 05:33:58;;;;;;;26.98;22.35;;;19.10;99.90;;;;;;6308611;22;20015;-82
2021/07/04 05:36:25;;;;;;;30.30;23.02;;;19.10;99.90;;;;;;6309652;22;20093;-83
2021/07/04 05:38:51;;;;;;;27.17;21.60;;;19.10;99.90;;;;;;6317566;22;20021;-83
2021/07/04 05:41:17;;;;;;;29.50;23.33;;;19.20;99.90;;;;;;6283573;22;20085;-84
2021/07/04 05:43:44;;;;;;;29.52;23.17;;;19.30;99.90;;;;;;6319634;22;20098;-83
2021/07/04 05:46:11;;;;;;;27.45;22.15;;;19.40;99.90;;;;;;6319652;22;20010;-83
2021/07/04 05:48:39;;;;;;;24.77;19.77;;;19.40;99.90;;;;;;6282975;22;20007;-82
2021/07/04 05:51:05;;;;;;;27.85;22.17;;;19.40;99.90;;;;;;6319545;22;20457;-83
2021/07/04 05:53:43;;;;;;;26.00;21.48;;;19.50;99.90;;;;;;6346420;22;20117;-82
2021/07/04 05:56:09;;;;;;;29.92;21.55;;;19.70;99.90;;;;;;6308936;22;20105;-83
2021/07/04 05:58:35;;;;;;;27.25;20.40;;;19.70;99.90;;;;;;6319142;22;20073;-82
2021/07/04 06:01:00;;;;;;;23.73;19.73;;;19.80;99.90;;;;;;6318960;22;20015;-83
2021/07/04 06:03:26;;;;;;;25.40;21.38;;;19.90;99.90;;;;;;6335966;22;20010;-83
2021/07/04 06:05:52;;;;;;;26.75;20.45;;;20.00;99.90;;;;;;6309872;22;20017;-83
2021/07/04 06:08:18;;;;;;;27.45;19.17;;;20.00;99.90;;;;;;6308327;22;20018;-84
2021/07/04 06:10:44;;;;;;;23.98;20.23;;;20.00;99.90;;;;;;6337278;22;20435;-83
2021/07/04 06:13:11;;;;;;;25.63;20.30;;;20.10;99.90;;;;;;6308873;22;20438;-84
2021/07/04 06:15:37;;;;;;;25.23;19.38;;;20.10;99.90;;;;;;6319350;22;20018;-84
2021/07/04 06:18:03;;;;;;;24.48;20.25;;;20.10;99.90;;;;;;6348043;22;20010;-82
2021/07/04 06:20:29;;;;;;;25.23;18.08;;;20.10;99.90;;;;;;6319930;22;20007;-81
2021/07/04 06:22:55;;;;;;;24.08;19.90;;;20.10;99.90;;;;;;6319427;22;20056;-83
2021/07/04 06:25:22;;;;;;;24.25;20.05;;;20.10;99.90;;;;;;6345624;22;20042;-83
2021/07/04 06:27:48;;;;;;;23.60;18.85;;;20.00;99.90;;;;;;6319791;22;20007;-82
2021/07/04 06:30:15;;;;;;;24.70;19.08;;;20.00;99.90;;;;;;6319991;22;20042;-82
2021/07/04 06:32:41;;;;;;;21.13;17.80;;;20.00;99.90;;;;;;6348046;22;20503;-82
2021/07/04 06:35:10;;;;;;;20.98;16.63;;;20.00;99.90;;;;;;6347080;22;20011;-82
2021/07/04 06:37:36;;;;;;;18.15;16.00;;;20.10;99.90;;;;;;6309195;22;20304;-83
2021/07/04 06:40:04;;;;;;;21.10;17.13;;;20.30;99.90;;;;;;6310446;22;20023;-82
2021/07/04 06:42:30;;;;;;;19.63;16.38;;;20.30;99.90;;;;;;6285040;22;20053;-82
2021/07/04 06:44:56;;;;;;;18.77;16.13;;;20.30;99.90;;;;;;6349311;22;20015;-82
2021/07/04 06:47:22;;;;;;;22.27;17.77;;;20.20;99.90;;;;;;6321204;22;20014;-81
2021/07/04 06:49:48;;;;;;;22.02;16.58;;;20.20;99.90;;;;;;6321676;22;20287;-81
2021/07/04 06:52:14;;;;;;;24.30;17.30;;;20.20;99.90;;;;;;6349649;22;20068;-82
2021/07/04 06:54:40;;;;;;;21.40;16.52;;;20.10;99.90;;;;;;6350228;22;20420;-82
2021/07/04 06:59:50;;;;;;;20.92;16.38;;;20.10;99.90;;;;;;6347721;22;20086;-82
2021/07/04 07:02:16;;;;;;;21.60;16.80;;;20.10;99.90;;;;;;6319865;22;20034;-81
2021/07/04 07:04:42;;;;;;;20.40;16.75;;;20.10;99.90;;;;;;6339111;22;20435;-81
2021/07/04 07:07:07;;;;;;;23.25;16.98;;;20.20;99.90;;;;;;6346917;22;20014;-81
2021/07/04 07:09:34;;;;;;;18.33;15.30;;;20.20;99.90;;;;;;6347334;22;20017;-82
2021/07/04 07:11:59;;;;;;;22.73;16.20;;;20.30;99.90;;;;;;6347580;22;20011;-81
2021/07/04 07:14:25;;;;;;;24.15;16.73;;;20.50;99.90;;;;;;6347951;22;20018;-82
2021/07/04 07:16:51;;;;;;;16.63;12.38;;;20.60;99.90;;;;;;6347557;22;20056;-76
2021/07/04 07:19:17;;;;;;;16.50;12.68;;;20.80;99.90;;;;;;6347510;22;20015;-76
2021/07/04 07:21:43;;;;;;;11.40;9.35;;;21.00;99.90;;;;;;6347073;22;20039;-75
2021/07/04 07:24:10;;;;;;;15.70;10.65;;;21.20;99.90;;;;;;6344692;22;20017;-75
2021/07/04 07:26:36;;;;;;;11.77;9.90;;;21.30;99.90;;;;;;6308813;22;20533;-76
2021/07/04 07:29:02;;;;;;;14.63;12.07;;;21.40;99.90;;;;;;6308379;22;20021;-76
2021/07/04 07:31:28;;;;;;;14.15;12.05;;;21.60;99.90;;;;;;6308572;22;20046;-79
2021/07/04 07:33:54;;;;;;;14.50;12.23;;;21.50;99.90;;;;;;6319225;22;20442;-77
2021/07/04 07:36:20;;;;;;;15.00;11.90;;;21.40;99.90;;;;;;6334565;22;20061;-79
2021/07/04 07:38:46;;;;;;;13.23;11.77;;;21.30;99.90;;;;;;6345927;22;20038;-79
2021/07/04 07:41:11;;;;;;;13.65;12.20;;;21.50;99.90;;;;;;6335670;22;20037;-78
2021/07/04 07:43:37;;;;;;;15.07;11.93;;;21.70;99.90;;;;;;6346931;22;20060;-79
2021/07/04 07:46:03;;;;;;;12.70;11.07;;;21.70;99.90;;;;;;6309600;22;20011;-79
2021/07/04 07:48:28;;;;;;;14.15;11.60;;;21.80;99.90;;;;;;6336553;22;20006;-78
2021/07/04 07:50:54;;;;;;;13.95;11.82;;;21.80;99.90;;;;;;6336916;22;20033;-79
2021/07/04 07:53:20;;;;;;;15.98;12.30;;;22.00;99.90;;;;;;6335004;22;20011;-80
2021/07/04 07:55:46;;;;;;;12.75;10.25;;;22.20;99.90;;;;;;6307533;22;20401;-81
2021/07/04 07:58:13;;;;;;;11.63;10.43;;;22.40;99.90;;;;;;6319199;22;20090;-83
2021/07/04 08:00:39;;;;;;;11.13;9.90;;;22.50;99.90;;;;;;6308044;22;20080;-83
2021/07/04 08:03:04;;;;;;;10.32;9.02;;;22.70;99.90;;;;;;6318173;22;20376;-83
2021/07/04 08:05:30;;;;;;;10.68;9.05;;;23.00;99.90;;;;;;6346676;22;20334;-83
2021/07/04 08:07:56;;;;;;;10.90;8.18;;;23.30;99.90;;;;;;6335971;22;20011;-82
2021/07/04 08:10:22;;;;;;;9.13;7.72;;;23.20;99.90;;;;;;6309098;22;20037;-87
2021/07/04 08:12:48;;;;;;;9.65;8.65;;;23.20;99.90;;;;;;6319427;22;20486;-80
2021/07/04 08:15:14;;;;;;;15.05;8.90;;;23.10;99.90;;;;;;6345980;22;20011;-79
2021/07/04 08:17:39;;;;;;;9.13;8.13;;;23.00;99.90;;;;;;6336197;22;20065;-79
2021/07/04 08:20:06;;;;;;;12.35;8.38;;;22.80;99.90;;;;;;6283170;22;20021;-80
2021/07/04 08:22:32;;;;;;;9.52;8.40;;;22.80;99.90;;;;;;6307962;22;20007;-82
2021/07/04 08:24:58;;;;;;;11.48;8.32;;;22.70;99.90;;;;;;6284284;22;20014;-81
2021/07/04 08:27:24;;;;;;;8.98;8.05;;;22.80;99.90;;;;;;6347472;22;20110;-79
2021/07/04 08:29:50;;;;;;;10.80;8.15;;;22.90;99.90;;;;;;6348590;22;20007;-81
2021/07/04 08:32:16;;;;;;;11.68;7.80;;;22.90;99.90;;;;;;6348671;22;20006;-83
2021/07/04 08:34:42;;;;;;;10.88;8.25;;;23.00;99.90;;;;;;6309548;22;20015;-77
2021/07/04 08:37:09;;;;;;;16.30;6.45;;;22.90;99.90;;;;;;6347935;22;20015;-82
2021/07/04 08:39:35;;;;;;;14.10;7.60;;;23.10;99.90;;;;;;6345903;22;20086;-79
2021/07/04 08:42:00;;;;;;;11.30;8.13;;;23.20;99.90;;;;;;6321879;22;20006;-81
2021/07/04 08:44:26;;;;;;;10.23;8.23;;;23.10;99.90;;;;;;6321669;22;20046;-80
2021/07/04 08:46:52;;;;;;;10.02;8.23;;;23.00;99.90;;;;;;6338965;22;20011;-79
2021/07/04 08:49:18;;;;;;;9.40;8.00;;;23.00;99.90;;;;;;6310619;22;20426;-79
2021/07/04 08:51:47;;;;;;;10.20;8.73;;;23.10;99.90;;;;;;6339096;22;20110;-81
2021/07/04 08:54:13;;;;;;;9.35;8.45;;;23.20;99.90;;;;;;6348703;22;20011;-80
2021/07/04 08:56:39;;;;;;;9.45;8.45;;;23.20;99.90;;;;;;6349908;22;20033;-80
2021/07/04 08:59:05;;;;;;;10.15;8.95;;;23.20;99.90;;;;;;6322618;22;20089;-81
2021/07/04 09:01:33;;;;;;;10.30;8.80;;;23.20;99.90;;;;;;6338890;22;20030;-83
2021/07/04 09:04:11;;;;;;;10.85;8.85;;;23.40;99.90;;;;;;6344367;22;20019;-79
2021/07/04 09:06:41;;;;;;;10.43;9.25;;;23.40;99.90;;;;;;6322495;22;20006;-77
2021/07/04 09:09:30;;;;;;;10.75;9.65;;;23.40;99.90;;;;;;6348119;22;20014;-78
2021/07/04 09:12:06;;;;;;;12.23;10.93;;;23.40;99.90;;;;;;6311433;22;20136;-76
2021/07/04 09:14:50;;;;;;;15.65;12.10;;;23.40;99.90;;;;;;6348255;22;20086;-78
2021/07/04 09:17:17;;;;;;;13.60;12.20;;;23.40;99.90;;;;;;6309990;22;20019;-80
2021/07/04 09:19:59;;;;;;;13.95;12.55;;;23.50;99.90;;;;;;6320567;22;20011;-77
2021/07/04 09:22:31;;;;;;;15.20;13.13;;;23.60;99.90;;;;;;6347471;22;20787;-79
2021/07/04 09:25:19;;;;;;;14.02;12.55;;;24.00;99.90;;;;;;6339325;22;20026;-79
2021/07/04 09:28:03;;;;;;;12.63;11.30;;;24.40;99.90;;;;;;6344982;22;20090;-80
2021/07/04 09:30:34;;;;;;;13.43;11.90;;;24.50;99.90;;;;;;6337172;22;20011;-79
2021/07/04 09:33:13;;;;;;;11.38;10.20;;;24.70;99.90;;;;;;6311213;22;20089;-81
2021/07/04 09:35:40;;;;;;;10.70;8.90;;;24.80;99.90;;;;;;6321400;22;20773;-80
2021/07/04 09:38:16;;;;;;;12.73;10.50;;;24.90;99.90;;;;;;6321965;22;20015;-82
2021/07/04 09:40:43;;;;;;;14.88;9.70;;;24.90;99.90;;;;;;6285489;22;20094;-79
2021/07/04 09:43:17;;;;;;;13.77;12.30;;;24.90;99.90;;;;;;6338540;22;20086;-78
2021/07/04 09:45:55;;;;;;;12.80;11.38;;;25.20;99.90;;;;;;6310865;22;20084;-81
2021/07/04 09:48:30;;;;;;;13.10;11.60;;;25.30;99.90;;;;;;6338753;22;20006;-79
2021/07/04 09:50:58;;;;;;;13.57;12.20;;;25.20;99.90;;;;;;6349539;22;20438;-79
2021/07/04 09:53:35;;;;;;;12.13;10.85;;;25.00;99.90;;;;;;6337884;22;20046;-80
2021/07/04 09:56:18;;;;;;;13.13;10.98;;;24.90;99.90;;;;;;6340687;22;20010;-81
2021/07/04 09:58:46;;;;;;;12.48;11.18;;;24.60;99.90;;;;;;6309555;22;20026;-78
2021/07/04 10:01:29;;;;;;;16.85;10.77;;;24.40;99.90;;;;;;6308737;22;20018;-81
2021/07/04 10:03:55;;;;;;;11.48;10.18;;;24.40;99.90;;;;;;6313962;22;20045;-77
2021/07/04 10:06:21;;;;;;;10.45;9.38;;;24.20;99.90;;;;;;6347337;22;20403;-77
2021/07/04 10:08:47;;;;;;;10.00;9.00;;;24.30;99.90;;;;;;6337396;22;20094;-77
2021/07/04 10:11:15;;;;;;;10.45;9.40;;;24.40;99.90;;;;;;6284152;22;20413;-77
2021/07/04 10:13:43;;;;;;;10.15;9.13;;;24.30;99.90;;;;;;6347625;22;20124;-76
2021/07/04 10:16:11;;;;;;;9.80;8.68;;;24.50;99.90;;;;;;6347023;22;20011;-82
2021/07/04 10:18:38;;;;;;;10.68;9.55;;;24.90;99.90;;;;;;6321242;22;20007;-83
2021/07/04 10:21:05;;;;;;;11.52;9.75;;;25.10;99.90;;;;;;6310966;22;20526;-78
2021/07/04 10:23:32;;;;;;;10.80;9.50;;;25.10;99.90;;;;;;6321575;22;20041;-79
2021/07/04 10:25:59;;;;;;;11.68;9.93;;;25.10;99.90;;;;;;6311284;22;20090;-80
2021/07/04 10:28:27;;;;;;;10.85;9.75;;;25.10;99.90;;;;;;6346085;22;20057;-77
2021/07/04 10:30:53;;;;;;;13.77;9.85;;;24.90;99.90;;;;;;6310261;22;20082;-79
2021/07/04 10:33:32;;;;;;;13.38;10.48;;;24.90;99.90;;;;;;6347094;22;20490;-79
2021/07/04 10:35:58;;;;;;;12.40;11.15;;;25.10;99.90;;;;;;6308908;22;20011;-81
2021/07/04 10:38:25;;;;;;;11.95;10.50;;;25.50;99.90;;;;;;6308365;22;20022;-84
2021/07/04 10:41:07;;;;;;;13.75;10.23;;;25.70;99.90;;;;;;6340382;22;20014;-80
2021/07/04 10:43:56;;;;;;;13.25;11.82;;;25.60;99.90;;;;;;6337653;22;20455;-79
2021/07/04 10:46:41;;;;;;;13.80;11.60;;;25.70;99.90;;;;;;6308682;22;20015;-79
2021/07/04 10:49:21;;;;;;;12.90;11.40;;;25.80;99.90;;;;;;6319992;22;20041;-81
2021/07/04 10:52:01;;;;;;;13.10;11.80;;;25.90;99.90;;;;;;6310023;22;20011;-79
2021/07/04 10:54:43;;;;;;;12.32;10.95;;;25.70;99.90;;;;;;6309685;22;20018;-77
2021/07/04 10:57:34;;;;;;;13.13;11.52;;;25.60;99.90;;;;;;6338542;22;20014;-82
2021/07/04 11:00:08;;;;;;;15.57;12.93;;;25.40;99.90;;;;;;6310695;22;20082;-78
2021/07/04 11:02:39;;;;;;;16.25;13.73;;;25.00;99.90;;;;;;6348257;22;20046;-80
2021/07/04 11:05:14;;;;;;;17.05;13.20;;;25.10;99.90;;;;;;6310751;22;20021;-77
2021/07/04 11:08:05;;;;;;;17.00;14.27;;;25.10;99.90;;;;;;6284062;22;20385;-81
2021/07/04 11:10:34;;;;;;;18.88;15.25;;;25.20;99.90;;;;;;6309555;22;20026;-80
2021/07/04 11:13:09;;;;;;;15.65;13.65;;;25.50;99.90;;;;;;6346964;22;20015;-82
2021/07/04 11:15:37;;;;;;;14.80;13.15;;;25.70;99.90;;;;;;6337749;22;20038;-82
2021/07/04 11:18:05;;;;;;;15.23;13.07;;;25.70;99.90;;;;;;6347172;22;20010;-77
2021/07/04 11:20:51;;;;;;;16.67;13.20;;;25.80;99.90;;;;;;6336254;22;20149;-80
2021/07/04 11:23:21;;;;;;;14.95;13.38;;;25.70;99.90;;;;;;6284278;22;20026;-82
2021/07/04 11:25:54;;;;;;;15.77;13.98;;;25.50;99.90;;;;;;6342376;22;20019;-79
2021/07/04 11:28:30;;;;;;;16.80;13.10;;;25.50;99.90;;;;;;6307631;22;20043;-79
2021/07/04 11:31:19;;;;;;;15.02;13.43;;;25.10;99.90;;;;;;6309220;22;20034;-77
2021/07/04 11:33:48;;;;;;;14.77;13.18;;;24.90;99.90;;;;;;6154946;23;20029;-81
2021/07/04 11:36:20;;;;;;;16.30;14.60;;;24.90;99.90;;;;;;6182197;23;20017;-80
2021/07/04 11:39:00;;;;;;;18.40;14.07;;;24.70;99.90;;;;;;6130169;23;20021;-79
2021/07/04 11:41:29;;;;;;;19.63;15.15;;;24.70;99.90;;;;;;6182858;23;20021;-82
2021/07/04 11:44:04;;;;;;;16.45;14.75;;;24.60;99.90;;;;;;6165295;23;20024;-84
2021/07/04 11:46:32;;;;;;;15.93;13.80;;;24.50;99.90;;;;;;6181380;23;20568;-82
2021/07/04 11:49:23;;;;;;;16.35;14.20;;;24.70;99.90;;;;;;6191056;23;20017;-80
2021/07/04 11:51:58;;;;;;;17.48;13.63;;;25.20;99.90;;;;;;6091235;23;20023;-81
2021/07/04 11:54:31;;;;;;;14.13;12.63;;;25.60;99.90;;;;;;6092775;23;20320;-80
2021/07/04 12:00:08;;;;;;;12.73;11.43;;;25.50;99.90;;;;;;6094825;23;20093;-78
2021/07/04 12:02:44;;;;;;;13.45;11.60;;;25.50;99.90;;;;;;6071600;23;20550;-81
2021/07/04 12:05:14;;;;;;;12.50;11.20;;;25.50;99.90;;;;;;6071898;23;20101;-81
2021/07/04 12:07:40;;;;;;;13.07;11.50;;;25.50;99.90;;;;;;6070571;23;20026;-81
2021/07/04 12:10:06;;;;;;;14.07;11.43;;;25.50;99.90;;;;;;6129088;23;20016;-79
2021/07/04 12:12:37;;;;;;;15.15;13.55;;;25.40;99.90;;;;;;6243788;23;20012;-79
2021/07/04 12:15:08;;;;;;;17.17;14.05;;;25.50;99.90;;;;;;6252535;22;20094;-81
2021/07/04 12:17:48;;;;;;;15.77;13.93;;;25.50;99.90;;;;;;6254479;23;20026;-79
2021/07/04 12:20:23;;;;;;;13.63;11.98;;;25.90;99.90;;;;;;6219095;23;20019;-81
2021/07/04 12:22:54;;;;;;;13.10;11.70;;;26.00;99.90;;;;;;6221776;23;20012;-81
2021/07/04 12:25:20;;;;;;;13.63;11.30;;;26.00;99.90;;;;;;6252338;23;20484;-79
2021/07/04 12:27:52;;;;;;;13.30;11.90;;;26.40;99.90;;;;;;6253367;22;20046;-82
2021/07/04 12:30:20;;;;;;;13.00;11.50;;;26.50;99.90;;;;;;6312082;22;20018;-80
2021/07/04 12:32:53;;;;;;;13.40;11.93;;;27.00;99.90;;;;;;6349841;22;20015;-82
2021/07/04 12:35:24;;;;;;;14.18;12.07;;;27.60;99.90;;;;;;6349947;22;20007;-82
2021/07/04 12:37:53;;;;;;;12.50;11.20;;;28.00;99.90;;;;;;6338541;22;20018;-79
2021/07/04 12:40:23;;;;;;;14.13;11.40;;;28.30;99.90;;;;;;6339393;22;20018;-82
2021/07/04 12:42:49;;;;;;;11.00;9.90;;;28.50;99.90;;;;;;6349853;22;20013;-80
2021/07/04 12:45:20;;;;;;;13.00;10.50;;;28.70;99.90;;;;;;6339396;22;20025;-79